Time;durP1;ratioP1;P1;durP2;ratioP2;P2;SDS_P1;SDS_P2;PMS_P1;PMS_P2;Temp;Humidity;BMP_temperature;BMP_pressure;BME280_temperature;BME280_humidity;BME280_pressure;Samples;Min_cycle;Max_cycle;Signal;HPM_P1;HPM_P2
2021/03/21 00:00:18;;;;;;;4.50;4.10;;;;;;;1.89;53.99;96208.25;5033757;28;20289;-84
2021/03/21 00:02:44;;;;;;;5.20;4.43;;;;;;;1.94;53.56;96205.38;5040058;28;20233;-82
2021/03/21 00:05:11;;;;;;;5.47;4.50;;;;;;;1.93;53.79;96206.28;5039806;28;20325;-83
2021/03/21 00:07:37;;;;;;;5.43;4.73;;;;;;;1.86;53.69;96205.91;5039557;28;20226;-82
2021/03/21 00:10:04;;;;;;;5.13;4.63;;;;;;;1.91;53.65;96203.06;5039403;28;20762;-83
2021/03/21 00:12:32;;;;;;;4.87;4.37;;;;;;;1.97;53.79;96205.97;5040572;28;20571;-83
2021/03/21 00:14:58;;;;;;;4.90;4.40;;;;;;;1.89;54.01;96202.38;5039497;28;20226;-83
2021/03/21 00:17:24;;;;;;;5.47;4.87;;;;;;;1.81;53.81;96197.81;5039314;28;20245;-81
2021/03/21 00:19:50;;;;;;;5.83;4.70;;;;;;;1.85;54.31;96200.94;5040006;28;20218;-83
2021/03/21 00:22:16;;;;;;;5.03;4.53;;;;;;;1.88;54.30;96186.31;5039796;28;20608;-82
2021/03/21 00:24:42;;;;;;;5.77;4.80;;;;;;;1.86;54.02;96194.97;5030849;28;20218;-81
2021/03/21 00:27:08;;;;;;;4.97;4.47;;;;;;;1.92;54.34;96189.44;5053381;28;20206;-81
2021/03/21 00:29:40;;;;;;;4.87;4.40;;;;;;;1.91;54.05;96193.72;5039626;28;20233;-81
2021/03/21 00:32:06;;;;;;;5.20;4.00;;;;;;;1.83;54.33;96190.91;5039881;28;20225;-81
2021/03/21 00:34:32;;;;;;;5.57;4.40;;;;;;;1.89;54.23;96192.22;5040211;28;20652;-83
2021/03/21 00:36:58;;;;;;;4.50;4.10;;;;;;;1.83;54.48;96195.97;5036664;28;20241;-82
2021/03/21 00:39:24;;;;;;;5.30;4.80;;;;;;;1.87;54.41;96191.50;5039187;28;20217;-83
2021/03/21 00:41:50;;;;;;;4.97;4.40;;;;;;;1.92;54.10;96182.66;5039096;28;20226;-84
2021/03/21 00:44:16;;;;;;;5.50;4.90;;;;;;;1.93;54.45;96189.31;5039881;28;20230;-84
2021/03/21 00:46:43;;;;;;;4.83;4.30;;;;;;;1.95;54.21;96184.94;5040110;28;20651;-83
2021/03/21 00:49:09;;;;;;;5.37;4.87;;;;;;;1.88;54.02;96183.78;5040157;28;20224;-82
2021/03/21 00:51:35;;;;;;;5.37;4.50;;;;;;;1.94;54.04;96177.44;5039326;28;20198;-81
2021/03/21 00:54:01;;;;;;;5.20;4.70;;;;;;;1.88;53.85;96182.97;5039830;28;20309;-83
2021/03/21 00:56:30;;;;;;;5.93;4.47;;;;;;;1.88;53.97;96180.44;5043274;28;20225;-83
2021/03/21 00:58:58;;;;;;;7.30;4.50;;;;;;;1.90;54.06;96165.91;5038672;28;20222;-81
2021/03/21 01:01:24;;;;;;;4.40;4.00;;;;;;;1.92;53.83;96169.16;5038494;28;20842;-80
2021/03/21 01:03:51;;;;;;;4.90;4.40;;;;;;;1.96;53.86;96162.91;5038071;28;20312;-82
2021/03/21 01:06:17;;;;;;;5.80;4.03;;;;;;;1.88;53.81;96160.94;5038840;28;20194;-82
2021/03/21 01:08:43;;;;;;;5.30;4.67;;;;;;;1.85;53.64;96161.13;5040150;28;20307;-81
2021/03/21 01:11:12;;;;;;;4.57;4.10;;;;;;;1.90;53.79;96159.09;5038650;28;20720;-82
2021/03/21 01:13:38;;;;;;;5.93;4.13;;;;;;;1.87;54.03;96159.31;5033154;28;20226;-81
2021/03/21 01:16:06;;;;;;;4.90;4.40;;;;;;;1.89;53.97;96157.47;5033642;28;20218;-80
2021/03/21 01:18:33;;;;;;;4.73;4.23;;;;;;;1.90;54.12;96148.94;5032372;28;20226;-84
2021/03/21 01:21:02;;;;;;;5.10;4.10;;;;;;;1.83;53.83;96154.56;5035793;28;20244;-84
2021/03/21 01:23:28;;;;;;;5.17;4.37;;;;;;;1.88;53.86;96157.59;5036053;28;20307;-83
2021/03/21 01:25:54;;;;;;;6.10;4.80;;;;;;;1.83;53.79;96157.09;5036169;28;20756;-84
2021/03/21 01:28:23;;;;;;;4.60;3.93;;;;;;;1.85;53.67;96156.06;5035982;28;20594;-82
2021/03/21 01:30:51;;;;;;;4.73;4.00;;;;;;;1.87;53.76;96149.16;5035863;28;20194;-82
2021/03/21 01:33:17;;;;;;;5.27;4.47;;;;;;;1.86;53.92;96139.91;5032001;28;20218;-82
2021/03/21 01:35:44;;;;;;;4.70;4.20;;;;;;;1.89;53.93;96139.69;5035487;28;20233;-80
2021/03/21 01:38:11;;;;;;;4.43;3.93;;;;;;;1.87;53.76;96131.38;5034801;28;20222;-82
2021/03/21 01:40:37;;;;;;;4.83;4.33;;;;;;;1.86;54.00;96126.41;5034974;28;20229;-80
2021/03/21 01:43:04;;;;;;;5.53;4.40;;;;;;;1.71;53.65;96124.06;5034594;28;20234;-84
2021/03/21 01:45:33;;;;;;;4.53;4.10;;;;;;;1.80;53.96;96124.31;5036267;28;20631;-80
2021/03/21 01:48:02;;;;;;;4.83;4.20;;;;;;;1.79;54.06;96118.41;5035962;28;20257;-83
2021/03/21 01:50:33;;;;;;;4.80;4.10;;;;;;;1.81;53.42;96114.03;5035701;28;20237;-82
2021/03/21 01:53:01;;;;;;;4.40;4.00;;;;;;;1.80;53.73;96111.59;5035907;28;20766;-81
2021/03/21 01:55:28;;;;;;;4.50;4.10;;;;;;;1.81;53.49;96103.06;5027114;28;20226;-83
2021/03/21 01:57:54;;;;;;;4.73;4.20;;;;;;;1.63;53.42;96100.13;5035745;28;20225;-82
2021/03/21 02:00:21;;;;;;;4.53;3.93;;;;;;;1.69;53.76;96100.50;5033960;28;20191;-81
2021/03/21 02:02:48;;;;;;;5.07;4.40;;;;;;;1.62;53.85;96088.34;5035399;28;20224;-81
2021/03/21 02:05:15;;;;;;;4.83;4.43;;;;;;;1.70;53.73;96081.81;5035066;28;20237;-80
2021/03/21 02:07:56;;;;;;;4.57;4.10;;;;;;;1.79;53.37;96074.44;5035563;28;20603;-82
2021/03/21 02:10:35;;;;;;;6.10;4.53;;;;;;;1.85;53.22;96071.47;5015101;28;20637;-83
2021/03/21 02:13:06;;;;;;;4.17;3.77;;;;;;;1.86;53.07;96073.91;5029838;28;20568;-79
2021/03/21 02:15:38;;;;;;;4.77;4.30;;;;;;;1.94;52.88;96078.41;5036368;28;20222;-81
2021/03/21 02:18:12;;;;;;;5.40;4.30;;;;;;;2.00;53.11;96071.16;5035449;28;20241;-81
2021/03/21 02:20:54;;;;;;;6.30;4.47;;;;;;;1.94;52.77;96073.34;5015388;28;20238;-82
2021/03/21 02:23:44;;;;;;;5.37;4.20;;;;;;;1.96;52.77;96076.56;5031520;28;20720;-84
2021/03/21 02:26:22;;;;;;;4.40;4.00;;;;;;;1.82;52.24;96080.13;5034589;28;20603;-83
2021/03/21 02:29:13;;;;;;;4.07;3.67;;;;;;;1.88;52.34;96082.22;5035385;28;20226;-82
2021/03/21 02:31:43;;;;;;;5.30;4.10;;;;;;;1.92;52.67;96073.47;5034899;28;20305;-82
2021/03/21 02:34:16;;;;;;;5.00;4.50;;;;;;;1.98;52.70;96072.19;5034896;28;20233;-83
2021/03/21 02:36:47;;;;;;;5.13;4.10;;;;;;;1.90;51.75;96061.81;5035480;28;20206;-83
2021/03/21 02:39:21;;;;;;;4.67;4.03;;;;;;;1.87;51.97;96064.56;5035850;28;20206;-83
2021/03/21 02:41:53;;;;;;;4.53;4.00;;;;;;;1.88;52.64;96059.38;5033257;28;20335;-83
2021/03/21 02:44:26;;;;;;;4.87;4.10;;;;;;;1.81;52.25;96057.38;5032673;28;20229;-83
2021/03/21 02:46:56;;;;;;;4.63;4.17;;;;;;;1.90;52.38;96057.53;5030329;28;20594;-84
2021/03/21 02:49:27;;;;;;;4.40;4.00;;;;;;;1.93;52.37;96048.84;5028573;28;20218;-81
2021/03/21 02:51:58;;;;;;;4.43;3.90;;;;;;;1.89;51.95;96048.31;5028117;28;20233;-84
2021/03/21 02:54:27;;;;;;;4.43;4.03;;;;;;;1.90;52.09;96049.91;5034506;28;20895;-80
2021/03/21 02:57:00;;;;;;;4.23;3.83;;;;;;;1.78;52.26;96044.91;5031844;28;20226;-81
2021/03/21 02:59:32;;;;;;;4.60;3.97;;;;;;;1.81;52.33;96039.63;5032011;28;20221;-81
2021/03/21 03:02:02;;;;;;;4.70;4.00;;;;;;;1.80;52.28;96043.06;5031744;28;20233;-80
2021/03/21 03:04:31;;;;;;;4.80;4.10;;;;;;;1.86;52.20;96035.81;5032340;28;20304;-81
2021/03/21 03:07:05;;;;;;;5.40;3.73;;;;;;;1.92;52.21;96032.84;5032271;28;20228;-81
2021/03/21 03:09:38;;;;;;;4.57;4.13;;;;;;;1.88;52.39;96038.25;5033136;28;20212;-79
2021/03/21 03:12:09;;;;;;;4.33;3.90;;;;;;;1.84;52.56;96031.78;5032579;28;20218;-82
2021/03/21 03:14:39;;;;;;;4.43;4.03;;;;;;;1.89;52.64;96029.72;5032024;28;20360;-83
2021/03/21 03:17:10;;;;;;;5.03;3.93;;;;;;;1.94;52.38;96030.16;5033152;28;20225;-83
2021/03/21 03:19:43;;;;;;;5.40;4.07;;;;;;;1.97;51.96;96023.13;5032288;28;20217;-82
2021/03/21 03:22:15;;;;;;;5.00;4.10;;;;;;;1.89;52.19;96028.00;5032125;28;20257;-82
2021/03/21 03:24:49;;;;;;;4.30;3.90;;;;;;;1.91;52.39;96016.00;5031988;28;20323;-79
2021/03/21 03:27:19;;;;;;;4.17;3.77;;;;;;;1.99;51.99;96017.94;5032507;28;20198;-81
2021/03/21 03:29:52;;;;;;;4.50;4.10;;;;;;;2.01;52.07;96023.72;5031211;28;20233;-81
2021/03/21 03:32:19;;;;;;;4.37;3.57;;;;;;;2.01;51.85;96019.47;5032095;28;20276;-79
2021/03/21 03:34:48;;;;;;;5.83;3.90;;;;;;;1.95;51.88;96021.63;5031617;28;20236;-83
2021/03/21 03:37:14;;;;;;;4.17;3.70;;;;;;;1.90;52.15;96016.09;5031126;28;20225;-81
2021/03/21 03:39:41;;;;;;;4.50;4.10;;;;;;;1.95;52.08;96011.47;5031819;28;20217;-82
2021/03/21 03:42:12;;;;;;;4.33;3.83;;;;;;;2.02;52.13;96010.13;5032381;28;20465;-81
2021/03/21 03:44:45;;;;;;;4.80;4.10;;;;;;;1.98;52.11;96001.91;5031943;28;20598;-82
2021/03/21 03:47:19;;;;;;;5.37;3.93;;;;;;;1.79;52.26;96006.72;5032288;28;20226;-82
2021/03/21 03:49:53;;;;;;;4.00;3.60;;;;;;;1.81;52.44;95999.00;5031886;28;20217;-79
2021/03/21 03:52:50;;;;;;;4.37;3.63;;;;;;;1.92;52.63;95991.41;5031983;28;20251;-82
2021/03/21 03:55:24;;;;;;;4.10;3.57;;;;;;;1.96;52.26;95985.16;5029620;28;20229;-79
2021/03/21 03:57:55;;;;;;;5.57;3.83;;;;;;;1.92;52.02;95983.78;5031794;28;20193;-80
2021/03/21 04:00:30;;;;;;;4.03;3.63;;;;;;;1.96;52.42;95977.53;5031767;28;20209;-81
2021/03/21 04:03:27;;;;;;;4.60;3.80;;;;;;;1.76;52.23;95973.94;5032002;28;20356;-79
2021/03/21 04:05:57;;;;;;;4.27;3.70;;;;;;;1.70;52.72;95971.88;5014522;28;20226;-79
2021/03/21 04:08:31;;;;;;;3.97;3.57;;;;;;;1.77;52.51;95977.28;5031032;28;20232;-82
2021/03/21 04:11:01;;;;;;;4.40;4.00;;;;;;;1.83;52.93;95969.22;5031023;28;20230;-82
2021/03/21 04:13:34;;;;;;;7.67;3.77;;;;;;;1.79;52.58;95973.72;5031749;28;20233;-81
2021/03/21 04:16:00;;;;;;;4.30;3.57;;;;;;;1.89;53.09;95977.22;5031496;28;20225;-80
2021/03/21 04:18:33;;;;;;;4.10;3.70;;;;;;;1.91;52.61;95977.09;5032131;28;20200;-79
2021/03/21 04:21:04;;;;;;;3.80;3.40;;;;;;;1.87;52.59;95968.91;5031573;28;20225;-82
2021/03/21 04:23:33;;;;;;;4.43;4.00;;;;;;;1.90;52.96;95968.69;5012614;28;20235;-83
2021/03/21 04:26:04;;;;;;;4.30;3.83;;;;;;;1.87;52.50;95961.28;5026542;28;20229;-82
2021/03/21 04:28:40;;;;;;;4.80;3.73;;;;;;;1.89;52.78;95964.53;5032545;28;20229;-83
2021/03/21 04:31:10;;;;;;;5.30;3.90;;;;;;;1.86;52.51;95969.00;5032069;28;20221;-83
2021/03/21 04:33:44;;;;;;;4.30;3.90;;;;;;;1.96;52.82;95963.13;5032541;28;20214;-82
2021/03/21 04:36:15;;;;;;;4.50;4.10;;;;;;;1.99;52.32;95952.75;5032806;28;20205;-83
2021/03/21 04:38:45;;;;;;;4.10;3.43;;;;;;;2.00;52.62;95953.56;5032846;28;20230;-82
2021/03/21 04:41:14;;;;;;;3.63;3.30;;;;;;;2.06;52.29;95955.63;5031876;28;20234;-82
2021/03/21 04:43:45;;;;;;;4.40;4.00;;;;;;;1.99;52.24;95952.75;5031765;28;20233;-82
2021/03/21 04:46:17;;;;;;;4.60;3.90;;;;;;;2.03;52.54;95954.13;5031539;28;20353;-80
2021/03/21 04:48:44;;;;;;;4.30;3.87;;;;;;;2.01;52.17;95948.34;5034919;28;20217;-81
2021/03/21 04:51:17;;;;;;;4.07;3.67;;;;;;;2.01;52.35;95948.34;5035434;28;20385;-82
2021/03/21 04:53:48;;;;;;;4.80;3.73;;;;;;;2.06;52.73;95953.09;5035371;28;20226;-80
2021/03/21 04:56:22;;;;;;;3.90;3.57;;;;;;;2.00;52.72;95959.44;5034511;28;20234;-81
2021/03/21 04:58:51;;;;;;;4.53;3.60;;;;;;;1.89;52.90;95958.63;5034662;28;20229;-80
2021/03/21 05:01:21;;;;;;;4.07;3.37;;;;;;;1.89;53.07;95956.91;5034444;28;20764;-80
2021/03/21 05:03:54;;;;;;;4.23;3.80;;;;;;;1.97;53.12;95962.19;5036145;28;20248;-80
2021/03/21 05:06:31;;;;;;;4.10;3.70;;;;;;;1.94;52.96;95959.06;5036632;28;20661;-83
2021/03/21 05:09:00;;;;;;;4.40;4.00;;;;;;;1.93;52.87;95965.88;5026612;28;20226;-82
2021/03/21 05:11:34;;;;;;;3.70;3.23;;;;;;;1.80;53.09;95959.31;5034867;28;20229;-81
2021/03/21 05:14:03;;;;;;;4.30;3.87;;;;;;;1.71;53.59;95969.22;5034358;28;20225;-80
2021/03/21 05:16:38;;;;;;;4.57;3.97;;;;;;;1.64;53.48;95962.97;5033989;28;20218;-82
2021/03/21 05:19:16;;;;;;;4.00;3.50;;;;;;;1.65;53.61;95961.25;5033666;28;20279;-80
2021/03/21 05:21:47;;;;;;;4.23;3.83;;;;;;;1.69;53.73;95958.38;5034405;28;20222;-81
2021/03/21 05:24:20;;;;;;;4.80;3.60;;;;;;;1.77;53.82;95962.88;5034149;28;20318;-80
2021/03/21 05:26:52;;;;;;;3.87;3.40;;;;;;;1.74;53.47;95966.44;5034966;28;20229;-79
2021/03/21 05:29:35;;;;;;;5.80;3.80;;;;;;;1.71;53.97;95964.16;5036133;28;20229;-80
2021/03/21 05:32:02;;;;;;;3.97;3.20;;;;;;;1.68;53.40;95961.84;5039583;28;20234;-80
2021/03/21 05:34:29;;;;;;;3.37;3.07;;;;;;;1.72;53.53;95963.22;5038419;28;20245;-79
2021/03/21 05:37:03;;;;;;;4.10;3.40;;;;;;;1.65;53.32;95951.09;5038348;28;20275;-83
2021/03/21 05:39:38;;;;;;;3.60;2.97;;;;;;;1.71;53.03;95958.28;5042100;28;20201;-84
2021/03/21 05:42:44;;;;;;;3.70;3.30;;;;;;;1.66;53.61;95960.31;5042084;28;20779;-82
2021/03/21 05:45:42;;;;;;;4.87;3.50;;;;;;;1.76;53.02;95958.72;5032844;28;20251;-82
2021/03/21 05:48:34;;;;;;;6.13;3.10;;;;;;;1.59;53.41;95964.22;5030529;28;20229;-83
2021/03/21 05:51:33;;;;;;;3.80;3.13;;;;;;;1.69;53.38;95960.91;5041092;28;20252;-84
2021/03/21 05:54:26;;;;;;;4.23;3.13;;;;;;;1.68;53.40;95959.28;5039252;28;20225;-83
2021/03/21 05:57:08;;;;;;;3.33;3.03;;;;;;;1.54;53.60;95956.94;5035713;28;20225;-84
2021/03/21 05:59:54;;;;;;;4.30;3.00;;;;;;;1.52;54.07;95951.19;5033799;28;20321;-82
2021/03/21 06:02:34;;;;;;;3.67;3.20;;;;;;;1.61;54.15;95955.59;5026456;28;20233;-83
2021/03/21 06:05:41;;;;;;;4.03;3.33;;;;;;;1.69;54.17;95955.84;5033085;28;20261;-84
2021/03/21 06:08:30;;;;;;;3.93;2.63;;;;;;;1.69;53.59;95947.41;5026201;28;20218;-84
2021/03/21 06:11:35;;;;;;;5.93;3.23;;;;;;;1.73;53.50;95941.19;5014742;28;20237;-84
2021/03/21 06:14:32;;;;;;;3.23;3.00;;;;;;;1.91;53.50;95942.38;5015818;28;20257;-83
2021/03/21 06:17:21;;;;;;;3.50;3.10;;;;;;;1.95;53.63;95941.19;5016071;28;20227;-82
2021/03/21 06:20:21;;;;;;;4.33;3.23;;;;;;;1.95;53.24;95930.22;5021464;28;20271;-82
2021/03/21 06:23:05;;;;;;;3.90;3.30;;;;;;;2.04;53.53;95927.81;5035105;28;20237;-81
2021/03/21 06:25:53;;;;;;;4.00;3.40;;;;;;;1.95;53.46;95936.13;5035342;28;20225;-83
2021/03/21 06:28:48;;;;;;;4.53;3.20;;;;;;;1.99;53.25;95926.53;5035151;28;20240;-84
2021/03/21 06:31:45;;;;;;;3.50;3.20;;;;;;;2.12;53.67;95924.69;5035374;28;20270;-83
2021/03/21 06:34:20;;;;;;;3.40;2.93;;;;;;;2.12;53.48;95918.81;5035153;28;20284;-81
2021/03/21 06:36:51;;;;;;;3.87;3.40;;;;;;;2.04;53.38;95912.59;5035571;28;20212;-83
2021/03/21 06:39:45;;;;;;;3.70;3.33;;;;;;;2.20;53.71;95912.22;5035760;28;20236;-82
2021/03/21 06:42:42;;;;;;;3.90;3.10;;;;;;;2.24;52.92;95911.06;5035422;28;20229;-82
2021/03/21 06:45:45;;;;;;;4.47;2.93;;;;;;;2.24;53.07;95913.59;5012557;28;20309;-82
2021/03/21 06:48:25;;;;;;;3.20;2.90;;;;;;;2.32;53.07;95902.84;5036639;28;20228;-80
2021/03/21 06:51:12;;;;;;;4.03;2.80;;;;;;;2.29;52.48;95910.72;5035802;28;20299;-80
2021/03/21 06:53:46;;;;;;;4.73;3.27;;;;;;;2.37;52.63;95909.19;5036925;28;20233;-83
2021/03/21 06:56:38;;;;;;;3.80;2.90;;;;;;;2.18;52.32;95896.28;5035496;28;20228;-82
2021/03/21 06:59:21;;;;;;;4.10;3.20;;;;;;;2.13;52.67;95905.97;5035278;28;20218;-84
2021/03/21 07:02:06;;;;;;;3.93;2.97;;;;;;;2.16;52.57;95903.22;5035580;28;20392;-84
2021/03/21 07:05:17;;;;;;;3.20;2.70;;;;;;;2.28;52.61;95901.47;5035845;28;20316;-83
2021/03/21 07:08:24;;;;;;;3.60;3.03;;;;;;;2.36;52.95;95906.75;5035122;28;20217;-81
2021/03/21 07:11:01;;;;;;;5.17;3.27;;;;;;;2.41;52.38;95904.69;5034060;28;20226;-83
2021/03/21 07:13:53;;;;;;;4.23;2.80;;;;;;;2.22;52.58;95900.22;5018016;28;20226;-80
2021/03/21 07:17:06;;;;;;;3.40;2.77;;;;;;;2.12;52.63;95889.13;5033275;28;20218;-82
2021/03/21 07:20:22;;;;;;;4.07;3.03;;;;;;;2.07;52.38;95886.97;5032732;28;20229;-82
2021/03/21 07:23:28;;;;;;;4.83;3.43;;;;;;;2.13;52.47;95883.13;5033512;28;20229;-83
2021/03/21 07:26:03;;;;;;;3.50;2.70;;;;;;;2.25;52.35;95883.94;5022181;28;20253;-81
2021/03/21 07:28:48;;;;;;;3.93;3.00;;;;;;;2.23;52.43;95888.31;5034504;28;20253;-83
2021/03/21 07:31:31;;;;;;;3.30;2.90;;;;;;;2.29;52.06;95890.41;5033853;28;20236;-83
2021/03/21 07:34:21;;;;;;;3.87;3.10;;;;;;;2.23;52.19;95878.97;5033825;28;20229;-84
2021/03/21 07:36:58;;;;;;;3.07;2.77;;;;;;;2.14;51.84;95883.94;5034767;28;20210;-81
2021/03/21 07:39:34;;;;;;;3.60;2.77;;;;;;;2.14;51.73;95877.13;5035311;28;20201;-84
2021/03/21 07:42:25;;;;;;;3.83;3.00;;;;;;;2.24;51.88;95867.88;5034510;28;20233;-84
2021/03/21 07:45:19;;;;;;;3.57;2.77;;;;;;;2.27;51.76;95861.75;5033427;28;20295;-83
2021/03/21 07:47:56;;;;;;;3.33;2.97;;;;;;;2.24;51.70;95852.63;5034174;28;20236;-83
2021/03/21 07:50:35;;;;;;;3.43;2.77;;;;;;;2.36;51.23;95838.97;5032840;28;20758;-81
2021/03/21 07:53:08;;;;;;;3.97;2.90;;;;;;;2.41;50.85;95844.50;5033076;28;20225;-85
2021/03/21 07:55:41;;;;;;;4.03;2.83;;;;;;;2.44;50.94;95858.72;5024059;28;20228;-83
2021/03/21 07:58:13;;;;;;;4.83;2.70;;;;;;;2.49;50.90;95858.38;5032920;28;20222;-81
2021/03/21 08:00:39;;;;;;;3.10;2.80;;;;;;;2.52;50.43;95860.63;5033026;28;20205;-82
2021/03/21 08:03:22;;;;;;;4.77;3.10;;;;;;;2.42;49.89;95860.56;5032878;28;20224;-84
2021/03/21 08:05:57;;;;;;;5.47;2.80;;;;;;;2.41;50.16;95866.56;5032994;28;20230;-80
2021/03/21 08:08:26;;;;;;;2.90;2.60;;;;;;;2.38;50.29;95862.53;5033562;28;20225;-84
2021/03/21 08:10:56;;;;;;;3.37;2.67;;;;;;;2.42;50.39;95856.28;5033405;28;20882;-83
2021/03/21 08:13:31;;;;;;;3.50;2.90;;;;;;;2.57;50.83;95861.09;5033867;28;20225;-84
2021/03/21 08:15:58;;;;;;;4.07;3.00;;;;;;;2.54;50.65;95861.31;5033662;28;20279;-84
2021/03/21 08:18:30;;;;;;;3.27;2.63;;;;;;;2.41;50.45;95864.84;5034553;28;20209;-81
2021/03/21 08:20:59;;;;;;;3.03;2.73;;;;;;;2.38;50.88;95862.53;5033834;28;20253;-83
2021/03/21 08:23:28;;;;;;;2.67;2.43;;;;;;;2.46;50.56;95861.13;5037374;28;20785;-80
2021/03/21 08:25:56;;;;;;;3.70;2.80;;;;;;;2.65;50.74;95858.75;5038791;28;20469;-85
2021/03/21 08:28:24;;;;;;;3.10;2.80;;;;;;;2.77;50.16;95863.69;5037559;28;20217;-83
2021/03/21 08:30:52;;;;;;;4.00;2.87;;;;;;;2.80;49.85;95861.81;5036790;28;20248;-82
2021/03/21 08:33:30;;;;;;;3.47;2.83;;;;;;;2.90;50.13;95865.22;5036662;28;20198;-83
2021/03/21 08:36:17;;;;;;;4.20;3.00;;;;;;;3.02;49.69;95852.34;5036996;28;20312;-82
2021/03/21 08:38:57;;;;;;;3.50;2.80;;;;;;;2.95;48.87;95856.31;5036944;28;20230;-81
2021/03/21 08:41:25;;;;;;;3.13;2.83;;;;;;;2.95;48.97;95851.22;5037427;28;20257;-81
2021/03/21 08:43:59;;;;;;;4.10;2.63;;;;;;;2.88;48.81;95855.22;5037248;28;20233;-82
2021/03/21 08:46:26;;;;;;;5.23;2.90;;;;;;;2.90;49.50;95850.78;5037626;28;20248;-82
2021/03/21 08:49:02;;;;;;;3.03;2.73;;;;;;;2.82;49.36;95855.69;5035088;28;20200;-82
2021/03/21 08:51:39;;;;;;;2.90;2.60;;;;;;;2.69;49.65;95858.38;5031743;28;20210;-81
2021/03/21 08:54:19;;;;;;;3.77;2.93;;;;;;;2.70;49.71;95852.38;5035112;28;20245;-84
2021/03/21 08:56:58;;;;;;;2.80;2.50;;;;;;;2.72;49.90;95847.97;5035394;28;20217;-84
2021/03/21 08:59:33;;;;;;;4.13;2.73;;;;;;;2.82;50.18;95834.53;5034154;28;20217;-83
2021/03/21 09:02:02;;;;;;;2.73;2.47;;;;;;;2.84;50.02;95835.22;5033412;28;20321;-83
2021/03/21 09:04:29;;;;;;;3.10;2.80;;;;;;;2.78;50.34;95837.31;5034620;28;20226;-84
2021/03/21 09:07:20;;;;;;;4.23;2.70;;;;;;;2.67;49.96;95827.22;5035357;28;20206;-83
2021/03/21 09:09:46;;;;;;;4.43;3.20;;;;;;;2.82;50.54;95822.63;5028051;28;20193;-82
2021/03/21 09:12:28;;;;;;;3.40;2.90;;;;;;;2.94;50.27;95834.34;5036670;28;20198;-82
2021/03/21 09:15:28;;;;;;;3.53;3.00;;;;;;;2.99;50.04;95839.88;5036289;28;20229;-81
2021/03/21 09:18:03;;;;;;;3.13;2.80;;;;;;;2.82;50.15;95834.53;5034706;28;20646;-81
2021/03/21 09:20:31;;;;;;;3.70;3.00;;;;;;;2.77;49.98;95830.63;5035335;28;20233;-84
2021/03/21 09:22:58;;;;;;;3.87;2.87;;;;;;;2.81;50.03;95828.66;5034673;28;20226;-83
2021/03/21 09:25:26;;;;;;;3.93;2.90;;;;;;;2.87;50.50;95832.44;5035010;28;20222;-84
2021/03/21 09:27:54;;;;;;;3.40;2.80;;;;;;;2.93;50.33;95826.84;5038309;28;20317;-81
2021/03/21 09:30:28;;;;;;;4.00;3.03;;;;;;;2.84;50.00;95820.78;5035506;28;20226;-81
2021/03/21 09:32:58;;;;;;;4.27;3.20;;;;;;;2.88;49.94;95818.81;5015785;28;20337;-82
2021/03/21 09:35:33;;;;;;;3.37;2.80;;;;;;;2.91;49.81;95828.69;5022236;28;20763;-84
2021/03/21 09:38:04;;;;;;;2.93;2.63;;;;;;;2.89;50.65;95833.09;5033443;28;20236;-81
2021/03/21 09:40:36;;;;;;;3.23;2.93;;;;;;;3.05;50.17;95839.41;5034783;28;20198;-84
2021/03/21 09:43:03;;;;;;;3.30;3.00;;;;;;;3.16;49.89;95828.34;5038116;28;20230;-81
2021/03/21 09:45:30;;;;;;;4.13;3.03;;;;;;;3.20;49.33;95834.78;5037843;28;20226;-82
2021/03/21 09:47:59;;;;;;;3.27;2.80;;;;;;;3.20;49.57;95836.53;5038911;28;20221;-85
2021/03/21 09:50:39;;;;;;;2.90;2.60;;;;;;;3.13;48.77;95839.56;5033430;28;20233;-84
2021/03/21 09:53:30;;;;;;;3.30;2.80;;;;;;;3.05;48.34;95834.31;5035280;28;20605;-82
2021/03/21 09:56:00;;;;;;;5.53;2.93;;;;;;;3.27;53.21;95837.66;5037436;28;20232;-82
2021/03/21 09:58:39;;;;;;;6.57;3.17;;;;;;;3.60;59.66;95836.59;5037985;28;20837;-83
2021/03/21 10:01:19;;;;;;;4.37;3.40;;;;;;;3.52;48.26;95834.69;5036317;28;20867;-81
2021/03/21 10:03:50;;;;;;;4.70;3.20;;;;;;;3.36;47.96;95839.44;5034046;28;20218;-80
2021/03/21 10:06:20;;;;;;;3.07;2.77;;;;;;;3.26;47.96;95844.47;5035646;28;20272;-82
2021/03/21 10:08:58;;;;;;;3.80;3.00;;;;;;;3.22;48.18;95832.94;5034098;28;20222;-84
2021/03/21 10:11:29;;;;;;;3.73;3.17;;;;;;;3.28;47.85;95840.03;5034960;28;20221;-83
2021/03/21 10:13:56;;;;;;;3.87;2.80;;;;;;;3.17;48.34;95832.50;5033727;28;20268;-81
2021/03/21 10:16:33;;;;;;;3.70;3.20;;;;;;;3.12;47.98;95829.50;5035397;28;20380;-82
2021/03/21 10:19:01;;;;;;;5.07;3.07;;;;;;;3.11;48.66;95815.19;5035025;28;20297;-84
2021/03/21 10:21:36;;;;;;;4.00;3.20;;;;;;;3.08;49.23;95823.06;5032814;28;20312;-81
2021/03/21 10:24:12;;;;;;;4.17;2.97;;;;;;;3.02;48.82;95816.75;5034467;28;20222;-83
2021/03/21 10:27:28;;;;;;;3.50;3.07;;;;;;;3.04;49.31;95812.34;5034925;28;20248;-80
2021/03/21 10:30:20;;;;;;;3.90;3.10;;;;;;;2.91;49.13;95810.91;5032713;28;20230;-82
2021/03/21 10:32:50;;;;;;;6.13;3.30;;;;;;;2.94;49.55;95805.56;5011490;28;20222;-84
2021/03/21 10:35:58;;;;;;;4.33;3.23;;;;;;;2.86;49.86;95808.75;5035202;28;20257;-82
2021/03/21 10:38:44;;;;;;;3.77;2.90;;;;;;;2.98;50.04;95799.31;5034821;28;20217;-81
2021/03/21 10:44:14;;;;;;;4.67;3.03;;;;;;;3.21;50.24;95800.78;5028734;28;20225;-83
2021/03/21 10:46:54;;;;;;;3.93;2.90;;;;;;;3.26;49.69;95802.97;5045213;28;20221;-82
2021/03/21 10:50:00;;;;;;;3.70;3.40;;;;;;;3.42;49.53;95803.31;5034784;28;20190;-81
2021/03/21 10:52:37;;;;;;;3.50;3.20;;;;;;;3.57;49.46;95802.03;5035108;28;20255;-83
2021/03/21 10:55:27;;;;;;;4.20;3.00;;;;;;;3.67;49.57;95796.94;5035126;28;20229;-83
2021/03/21 10:58:20;;;;;;;9.30;3.17;;;;;;;3.62;49.09;95794.81;5035204;28;20297;-84
2021/03/21 11:01:29;;;;;;;4.77;3.70;;;;;;;3.45;49.71;95793.69;5034714;28;20246;-81
2021/03/21 11:04:41;;;;;;;4.80;3.00;;;;;;;3.38;49.53;95795.13;5032735;28;22250;-81
2021/03/21 11:07:14;;;;;;;4.87;3.17;;;;;;;3.44;50.41;95789.53;5031612;28;20222;-81
2021/03/21 11:10:01;;;;;;;4.27;3.50;;;;;;;3.60;50.87;95793.31;5032358;28;20293;-82
2021/03/21 11:12:34;;;;;;;3.93;3.40;;;;;;;3.51;51.75;95782.16;5022480;28;20232;-81
2021/03/21 11:15:16;;;;;;;3.90;3.47;;;;;;;3.55;51.48;95780.19;5031870;28;20240;-83
2021/03/21 11:17:46;;;;;;;5.40;3.80;;;;;;;3.71;51.51;95773.66;5032918;28;20229;-82
2021/03/21 11:20:25;;;;;;;4.77;3.23;;;;;;;3.63;52.21;95770.16;5033697;28;20236;-85
2021/03/21 11:22:52;;;;;;;4.30;3.87;;;;;;;3.77;52.32;95757.06;5032887;28;20228;-81
2021/03/21 11:25:31;;;;;;;4.90;3.50;;;;;;;3.98;52.24;95754.44;5031452;28;20261;-81
2021/03/21 11:27:57;;;;;;;4.17;3.43;;;;;;;4.02;51.63;95748.94;5028648;28;20236;-84
2021/03/21 11:30:27;;;;;;;4.00;3.40;;;;;;;4.23;51.27;95760.78;5031603;28;20232;-83
2021/03/21 11:32:54;;;;;;;5.80;3.53;;;;;;;4.39;51.06;95766.13;5032205;28;20228;-80
2021/03/21 11:35:25;;;;;;;4.20;3.80;;;;;;;4.36;51.46;95757.00;5031578;28;20644;-82
2021/03/21 11:37:52;;;;;;;4.73;3.60;;;;;;;4.10;51.95;95761.81;5032619;28;20367;-84
2021/03/21 11:40:23;;;;;;;4.93;3.50;;;;;;;4.10;51.90;95750.81;5032496;28;20244;-84
2021/03/21 11:43:04;;;;;;;6.10;4.00;;;;;;;4.09;52.33;95754.28;5027577;28;20300;-83
2021/03/21 11:45:36;;;;;;;4.57;3.87;;;;;;;4.11;52.52;95765.16;5032699;28;20222;-83
2021/03/21 11:48:13;;;;;;;4.83;3.73;;;;;;;4.03;52.40;95759.94;5032274;28;20222;-82
2021/03/21 11:50:41;;;;;;;6.80;4.30;;;;;;;3.90;52.95;95749.19;5031913;28;20251;-83
2021/03/21 11:53:14;;;;;;;8.07;3.97;;;;;;;3.96;53.14;95752.00;5032777;28;20226;-83
2021/03/21 11:55:42;;;;;;;6.03;4.00;;;;;;;3.75;53.48;95746.19;5032725;28;20198;-84
2021/03/21 11:58:20;;;;;;;5.33;3.83;;;;;;;3.65;53.72;95756.38;5032515;28;20205;-84
2021/03/21 12:00:56;;;;;;;5.07;3.87;;;;;;;3.66;54.50;95744.41;5033282;28;20241;-82
2021/03/21 12:03:23;;;;;;;3.93;3.57;;;;;;;3.48;54.57;95752.69;5015198;28;20227;-82
2021/03/21 12:05:59;;;;;;;5.97;3.90;;;;;;;3.51;54.54;95738.09;5032787;28;20218;-85
2021/03/21 12:08:31;;;;;;;6.03;4.10;;;;;;;3.44;54.42;95735.28;5032681;28;20222;-83
2021/03/21 12:10:57;;;;;;;5.27;3.77;;;;;;;3.44;54.58;95736.09;5031867;28;20721;-81
2021/03/21 12:13:31;;;;;;;5.57;3.87;;;;;;;3.43;54.59;95731.13;5031569;28;20801;-83
2021/03/21 12:15:59;;;;;;;4.83;4.03;;;;;;;3.52;54.59;95719.34;5032614;28;20233;-84
2021/03/21 12:18:27;;;;;;;5.17;4.07;;;;;;;3.61;54.81;95723.66;5033273;28;20232;-84
2021/03/21 12:20:55;;;;;;;4.23;3.83;;;;;;;3.50;54.56;95731.38;5032405;28;20232;-82
2021/03/21 12:23:32;;;;;;;4.87;4.07;;;;;;;3.45;54.93;95727.50;5032466;28;20229;-80